createdAt,value
2018-09-01T00:00:06.786Z,100517.34
2018-09-01T00:02:34.555Z,100516.47
2018-09-01T00:05:02.328Z,100514.59
2018-09-01T00:07:30.050Z,100511.74
2018-09-01T00:09:57.762Z,100506.41
2018-09-01T00:12:25.507Z,100509.81
2018-09-01T00:14:53.263Z,100512.55
2018-09-01T00:17:26.852Z,100518.84
2018-09-01T00:19:54.669Z,100526.88
2018-09-01T00:22:22.331Z,100523.98
2018-09-01T00:24:51.062Z,100522.86
2018-09-01T00:27:20.258Z,100518.59
2018-09-01T00:29:48.326Z,100522.35
2018-09-01T00:32:16.014Z,100515.30
2018-09-01T00:34:47.490Z,100516.31
2018-09-01T00:37:21.372Z,100513.36
2018-09-01T00:39:49.002Z,100514.31
2018-09-01T00:42:16.658Z,100513.97
2018-09-01T00:44:44.344Z,100508.33
2018-09-01T00:47:12.027Z,100504.98
2018-09-01T00:49:39.729Z,100509.53
2018-09-01T00:52:07.462Z,100510.35
2018-09-01T00:54:35.123Z,100512.66
2018-09-01T00:57:03.281Z,100502.59
2018-09-01T00:59:30.974Z,100504.36
2018-09-01T01:01:58.735Z,100504.36
2018-09-01T01:04:26.410Z,100514.23
2018-09-01T01:06:54.310Z,100515.23
2018-09-01T01:09:22.082Z,100516.76
2018-09-01T01:11:49.903Z,100513.67
2018-09-01T01:14:29.163Z,100510.20
2018-09-01T01:16:56.898Z,100508.48
2018-09-01T01:19:24.637Z,100515.61
2018-09-01T01:21:52.424Z,100518.55
2018-09-01T01:24:20.447Z,100527.58
2018-09-01T01:26:52.756Z,100532.05
2018-09-01T01:29:20.455Z,100537.19
2018-09-01T01:31:48.124Z,100539.02
2018-09-01T01:34:15.908Z,100532.11
2018-09-01T01:36:43.656Z,100525.86
2018-09-01T01:39:11.407Z,100529.52
2018-09-01T01:41:39.175Z,100527.12
2018-09-01T01:44:07.665Z,100528.45
2018-09-01T01:46:35.326Z,100532.47
2018-09-01T01:49:03.155Z,100521.28
2018-09-01T01:51:30.900Z,100523.62
2018-09-01T01:53:58.659Z,100532.36
2018-09-01T01:56:26.387Z,100532.36
2018-09-01T01:58:54.085Z,100534.69
2018-09-01T02:01:21.751Z,100540.53
2018-09-01T02:03:53.344Z,100538.31
2018-09-01T02:06:21.059Z,100537.50
2018-09-01T02:08:48.723Z,100535.56
2018-09-01T02:11:16.413Z,100533.03
2018-09-01T02:13:44.127Z,100528.77
2018-09-01T02:16:11.807Z,100520.52
2018-09-01T02:18:39.489Z,100513.92
2018-09-01T02:21:07.154Z,100512.34
2018-09-01T02:23:34.814Z,100515.23
2018-09-01T02:26:02.639Z,100511.38
2018-09-01T02:28:30.330Z,100520.08
2018-09-01T02:30:58.300Z,100522.47
2018-09-01T02:33:25.999Z,100528.45
2018-09-01T02:35:53.735Z,100531.91
2018-09-01T02:38:21.522Z,100531.48
2018-09-01T02:40:49.403Z,100541.16
2018-09-01T02:43:17.083Z,100539.02
2018-09-01T02:45:44.803Z,100534.05
2018-09-01T02:48:12.672Z,100538.31
2018-09-01T02:50:40.347Z,100538.20
2018-09-01T02:53:08.066Z,100540.73
2018-09-01T02:55:35.755Z,100540.65
2018-09-01T02:58:03.470Z,100536.94
2018-09-01T03:00:35.756Z,100539.58
2018-09-01T03:03:03.707Z,100541.58
2018-09-01T03:05:31.408Z,100545.23
2018-09-01T03:07:59.231Z,100539.89
2018-09-01T03:10:26.964Z,100538.87
2018-09-01T03:12:54.659Z,100543.09
2018-09-01T03:15:22.358Z,100537.42
2018-09-01T03:17:50.220Z,100538.63
2018-09-01T03:20:17.954Z,100539.64
2018-09-01T03:22:45.681Z,100537.00
2018-09-01T03:25:13.396Z,100535.67
2018-09-01T03:27:41.083Z,100533.03
2018-09-01T03:30:09.072Z,100540.77
2018-09-01T03:32:36.815Z,100545.03
2018-09-01T03:35:05.223Z,100542.09
2018-09-01T03:37:32.934Z,100544.36
2018-09-01T03:40:00.758Z,100540.91
2018-09-01T03:42:28.751Z,100546.44
2018-09-01T03:44:56.401Z,100549.91
2018-09-01T03:47:24.062Z,100546.13
2018-09-01T03:49:52.059Z,100547.00
2018-09-01T03:52:19.768Z,100544.16
2018-09-01T03:54:47.519Z,100541.22
2018-09-01T03:57:15.198Z,100537.56
2018-09-01T03:59:42.887Z,100537.25
2018-09-01T04:02:10.702Z,100536.88
2018-09-01T04:04:38.452Z,100539.33
2018-09-01T04:07:06.235Z,100539.64
2018-09-01T04:09:33.919Z,100534.35
2018-09-01T04:12:01.780Z,100534.86
2018-09-01T04:14:29.560Z,100534.55
2018-09-01T04:16:57.227Z,100528.45
2018-09-01T04:19:24.983Z,100532.92
2018-09-01T04:21:52.739Z,100531.45
2018-09-01T04:24:21.339Z,100532.22
2018-09-01T04:26:49.076Z,100540.66
2018-09-01T04:29:17.227Z,100541.36
2018-09-01T04:31:45.607Z,100543.49
2018-09-01T04:34:13.743Z,100539.64
2018-09-01T04:36:41.774Z,100543.04
2018-09-01T04:39:10.983Z,100547.52
2018-09-01T04:41:38.880Z,100546.50
2018-09-01T04:44:06.671Z,100541.97
2018-09-01T04:46:34.436Z,100546.30
2018-09-01T04:49:02.206Z,100549.34
2018-09-01T04:51:29.911Z,100545.57
2018-09-01T04:53:57.681Z,100542.03
2018-09-01T04:56:25.780Z,100545.91
2018-09-01T04:58:53.534Z,100545.03
2018-09-01T05:01:21.335Z,100546.55
2018-09-01T05:03:49.072Z,100544.73
2018-09-01T05:06:16.847Z,100548.75
2018-09-01T05:08:44.566Z,100552.45
2018-09-01T05:11:12.468Z,100554.38
2018-09-01T05:13:40.167Z,100551.42
2018-09-01T05:16:07.930Z,100552.23
2018-09-01T05:18:35.692Z,100555.55
2018-09-01T05:21:03.399Z,100554.82
2018-09-01T05:23:31.078Z,100555.33
2018-09-01T05:25:58.884Z,100550.34
2018-09-01T05:28:26.609Z,100562.55
2018-09-01T05:30:54.380Z,100555.80
2018-09-01T05:33:22.201Z,100554.42
2018-09-01T05:35:50.090Z,100556.36
2018-09-01T05:38:18.848Z,100557.91
2018-09-01T05:40:46.559Z,100566.17
2018-09-01T05:43:14.494Z,100561.84
2018-09-01T05:45:42.289Z,100565.39
2018-09-01T05:48:11.494Z,100568.90
2018-09-01T05:50:39.261Z,100561.11
2018-09-01T05:53:07.018Z,100565.13
2018-09-01T05:55:34.896Z,100568.08
2018-09-01T05:58:02.654Z,100570.78
2018-09-01T06:00:34.869Z,100569.58
2018-09-01T06:03:02.666Z,100578.41
2018-09-01T06:05:30.410Z,100581.86
2018-09-01T06:07:58.118Z,100578.52
2018-09-01T06:10:25.871Z,100571.69
2018-09-01T06:12:53.654Z,100579.66
2018-09-01T06:15:21.362Z,100586.31
2018-09-01T06:17:49.339Z,100585.87
2018-09-01T06:20:17.015Z,100592.23
2018-09-01T06:22:44.767Z,100593.25
2018-09-01T06:25:12.564Z,100590.18
2018-09-01T06:27:47.016Z,100598.92
2018-09-01T06:30:18.470Z,100599.30
2018-09-01T06:32:46.136Z,100605.66
2018-09-01T06:35:13.880Z,100597.45
2018-09-01T06:37:41.709Z,100599.73
2018-09-01T06:40:09.733Z,100600.59
2018-09-01T06:42:37.461Z,100603.23
2018-09-01T06:45:05.202Z,100599.60
2018-09-01T06:47:32.962Z,100612.18
2018-09-01T06:50:00.728Z,100609.03
2018-09-01T06:52:28.491Z,100610.16
2018-09-01T06:54:56.188Z,100613.38
2018-09-01T06:57:23.896Z,100615.28
2018-09-01T06:59:51.759Z,100621.72
2018-09-01T07:02:19.455Z,100630.66
2018-09-01T07:04:47.139Z,100631.63
2018-09-01T07:07:14.834Z,100635.24
2018-09-01T07:09:42.510Z,100629.91
2018-09-01T07:12:10.479Z,100636.44
2018-09-01T07:14:38.165Z,100647.28
2018-09-01T07:17:05.919Z,100647.47
2018-09-01T07:19:33.679Z,100649.31
2018-09-01T07:22:01.348Z,100657.86
2018-09-01T07:24:29.058Z,100656.45
2018-09-01T07:26:57.079Z,100662.77
2018-09-01T07:29:25.839Z,100668.42
2018-09-01T07:31:53.530Z,100670.09
2018-09-01T07:34:21.500Z,100670.52
2018-09-01T07:36:49.282Z,100676.50
2018-09-01T07:39:17.014Z,100675.76
2018-09-01T07:41:44.859Z,100683.80
2018-09-01T07:44:12.627Z,100688.42
2018-09-01T07:46:40.310Z,100689.70
2018-09-01T07:49:08.058Z,100691.53
2018-09-01T07:51:35.763Z,100692.11
2018-09-01T07:54:03.470Z,100695.25
2018-09-01T07:56:31.198Z,100700.42
2018-09-01T07:58:59.101Z,100695.76
2018-09-01T08:01:26.798Z,100701.75
2018-09-01T08:03:54.506Z,100700.98
2018-09-01T08:06:22.199Z,100706.91
2018-09-01T08:08:49.903Z,100702.55
2018-09-01T08:11:17.931Z,100704.02
2018-09-01T08:13:46.012Z,100707.16
2018-09-01T08:16:13.818Z,100710.36
2018-09-01T08:18:41.574Z,100717.92
2018-09-01T08:21:09.351Z,100716.28
2018-09-01T08:23:37.098Z,100718.74
2018-09-01T08:26:05.093Z,100709.92
2018-09-01T08:28:32.865Z,100713.58
2018-09-01T08:31:01.123Z,100713.50
2018-09-01T08:33:28.897Z,100721.82
2018-09-01T08:35:56.810Z,100717.52
2018-09-01T08:38:24.520Z,100722.25
2018-09-01T08:40:52.275Z,100718.67
2018-09-01T08:43:20.067Z,100726.33
2018-09-01T08:45:47.738Z,100730.70
2018-09-01T08:48:15.447Z,100728.75
2018-09-01T08:50:43.146Z,100736.81
2018-09-01T08:53:10.858Z,100732.67
2018-09-01T08:55:38.563Z,100741.27
2018-09-01T08:58:06.391Z,100733.34
2018-09-01T09:00:34.087Z,100731.70
2018-09-01T09:03:01.797Z,100733.53
2018-09-01T09:05:29.498Z,100736.83
2018-09-01T09:07:57.247Z,100738.26
2018-09-01T09:10:25.205Z,100736.93
2018-09-01T09:12:52.986Z,100734.30
2018-09-01T09:15:20.728Z,100736.31
2018-09-01T09:17:48.840Z,100729.91
2018-09-01T09:20:16.655Z,100731.23
2018-09-01T09:22:44.563Z,100729.52
2018-09-01T09:25:12.281Z,100736.97
2018-09-01T09:27:40.079Z,100732.50
2018-09-01T09:30:08.257Z,100732.80
2018-09-01T09:32:36.120Z,100737.35
2018-09-01T09:35:03.926Z,100737.44
2018-09-01T09:37:31.999Z,100738.41
2018-09-01T09:39:59.716Z,100728.13
2018-09-01T09:42:27.411Z,100733.84
2018-09-01T09:44:55.091Z,100730.67
2018-09-01T09:47:23.055Z,100731.94
2018-09-01T09:49:50.720Z,100728.92
2018-09-01T09:52:18.514Z,100732.51
2018-09-01T09:54:46.258Z,100725.91
2018-09-01T09:57:13.919Z,100724.27
2018-09-01T09:59:41.930Z,100719.91
2018-09-01T10:02:09.594Z,100716.47
2018-09-01T10:04:37.303Z,100716.21
2018-09-01T10:07:05.441Z,100712.33
2018-09-01T10:09:33.196Z,100719.39
2018-09-01T10:12:01.239Z,100711.65
2018-09-01T10:14:29.027Z,100710.34
2018-09-01T10:16:56.824Z,100709.73
2018-09-01T10:19:24.616Z,100714.84
2018-09-01T10:21:52.506Z,100711.86
2018-09-01T10:24:20.174Z,100706.91
2018-09-01T10:26:48.047Z,100706.69
2018-09-01T10:29:15.699Z,100708.04
2018-09-01T10:31:43.498Z,100713.52
2018-09-01T10:34:11.205Z,100703.34
2018-09-01T10:36:39.186Z,100702.75
2018-09-01T10:39:08.514Z,100701.45
2018-09-01T10:41:36.278Z,100694.09
2018-09-01T10:44:04.005Z,100689.39
2018-09-01T10:46:31.730Z,100686.23
2018-09-01T10:48:59.712Z,100691.53
2018-09-01T10:51:27.432Z,100689.18
2018-09-01T10:53:55.095Z,100691.44
2018-09-01T10:56:22.879Z,100691.95
2018-09-01T10:58:50.632Z,100684.81
2018-09-01T11:01:18.369Z,100694.83
2018-09-01T11:03:46.150Z,100689.00
2018-09-01T11:06:14.347Z,100688.67
2018-09-01T11:08:42.047Z,100683.99
2018-09-01T11:11:09.741Z,100674.91
2018-09-01T11:13:39.504Z,100674.58
2018-09-01T11:16:07.532Z,100677.41
2018-09-01T11:19:55.506Z,100672.14
2018-09-01T11:22:23.250Z,100666.78
2018-09-01T11:24:51.002Z,100663.41
2018-09-01T11:27:18.781Z,100658.66
2018-09-01T11:29:46.504Z,100666.70
2018-09-01T11:32:15.432Z,100660.03
2018-09-01T11:34:43.169Z,100663.86
2018-09-01T11:37:10.849Z,100660.66
2018-09-01T11:39:38.530Z,100664.64
2018-09-01T11:42:06.463Z,100662.58
2018-09-01T11:44:34.250Z,100655.67
2018-09-01T11:47:02.219Z,100653.79
2018-09-01T11:49:30.006Z,100658.85
2018-09-01T11:51:57.699Z,100655.13
2018-09-01T11:54:25.523Z,100657.23
2018-09-01T11:56:53.284Z,100654.03
2018-09-01T11:59:20.969Z,100647.34
2018-09-01T12:01:49.026Z,100656.32
2018-09-01T12:04:17.380Z,100655.08
2018-09-01T12:06:45.950Z,100650.84
2018-09-01T12:09:13.727Z,100653.05
2018-09-01T12:11:41.365Z,100650.95
2018-09-01T12:14:09.086Z,100646.34
2018-09-01T12:16:36.787Z,100654.27
2018-09-01T12:19:10.111Z,100655.02
2018-09-01T12:21:37.935Z,100650.77
2018-09-01T12:24:06.048Z,100652.41
2018-09-01T12:26:34.065Z,100648.00
2018-09-01T12:29:01.842Z,100644.06
2018-09-01T12:31:29.559Z,100653.46
2018-09-01T12:33:57.259Z,100650.54
2018-09-01T12:36:25.309Z,100655.85
2018-09-01T12:38:52.962Z,100645.45
2018-09-01T12:41:20.783Z,100645.50
2018-09-01T12:43:48.812Z,100641.13
2018-09-01T12:46:16.564Z,100645.94
2018-09-01T12:48:44.213Z,100646.49
2018-09-01T12:51:11.930Z,100641.61
2018-09-01T12:53:39.959Z,100650.31
2018-09-01T12:56:07.870Z,100645.20
2018-09-01T12:58:35.744Z,100648.63
2018-09-01T13:01:03.559Z,100657.78
2018-09-01T13:03:31.272Z,100652.27
2018-09-01T13:05:59.073Z,100654.27
2018-09-01T13:08:26.987Z,100655.89
2018-09-01T13:10:54.732Z,100655.77
2018-09-01T13:13:22.892Z,100651.52
2018-09-01T13:15:50.651Z,100651.72
2018-09-01T13:18:18.526Z,100650.99
2018-09-01T13:20:50.481Z,100639.89
2018-09-01T13:23:18.274Z,100641.42
2018-09-01T13:25:45.955Z,100640.66
2018-09-01T13:28:13.827Z,100641.81
2018-09-01T13:30:41.522Z,100632.32
2018-09-01T13:33:09.303Z,100630.55
2018-09-01T13:35:36.965Z,100638.55
2018-09-01T13:38:04.769Z,100632.27
2018-09-01T13:40:32.516Z,100634.95
2018-09-01T13:43:00.207Z,100634.19
2018-09-01T13:45:27.870Z,100624.33
2018-09-01T13:47:55.591Z,100618.98
2018-09-01T13:50:23.317Z,100616.55
2018-09-01T13:52:51.103Z,100619.69
2018-09-01T13:55:18.798Z,100616.45
2018-09-01T13:57:46.564Z,100616.17
2018-09-01T14:00:14.283Z,100621.91
2018-09-01T14:02:42.068Z,100626.06
2018-09-01T14:05:09.847Z,100615.35
2018-09-01T14:07:37.514Z,100612.53
2018-09-01T14:10:05.942Z,100616.28
2018-09-01T14:12:33.623Z,100609.63
2018-09-01T14:15:01.328Z,100598.52
2018-09-01T14:17:29.091Z,100598.36
2018-09-01T14:19:57.126Z,100601.02
2018-09-01T14:22:24.838Z,100605.48
2018-09-01T14:24:52.551Z,100602.40
2018-09-01T14:27:20.308Z,100597.31
2018-09-01T14:29:54.902Z,100603.87
2018-09-01T14:32:22.739Z,100599.18
2018-09-01T14:34:50.407Z,100599.25
2018-09-01T14:37:18.232Z,100593.56
2018-09-01T14:39:45.837Z,100600.36
2018-09-01T14:42:13.552Z,100597.12
2018-09-01T14:44:41.290Z,100598.78
2018-09-01T14:47:09.077Z,100597.98
2018-09-01T14:49:36.742Z,100594.81
2018-09-01T14:52:04.515Z,100595.39
2018-09-01T14:54:36.116Z,100595.38
2018-09-01T14:57:03.883Z,100605.01
2018-09-01T14:59:31.751Z,100595.78
2018-09-01T15:01:59.435Z,100601.34
2018-09-01T15:04:27.200Z,100596.53
2018-09-01T15:06:55.023Z,100600.22
2018-09-01T15:09:22.803Z,100597.39
2018-09-01T15:11:50.543Z,100591.17
2018-09-01T15:14:18.292Z,100588.97
2018-09-01T15:16:46.046Z,100595.02
2018-09-01T15:19:13.750Z,100595.24
2018-09-01T15:21:42.157Z,100595.43
2018-09-01T15:24:09.827Z,100595.77
2018-09-01T15:26:37.882Z,100606.02
2018-09-01T15:29:05.587Z,100605.41
2018-09-01T15:31:33.299Z,100599.62
2018-09-01T15:34:07.820Z,100608.03
2018-09-01T15:36:35.641Z,100606.11
2018-09-01T15:39:03.778Z,100609.73
2018-09-01T15:41:32.086Z,100607.14
2018-09-01T15:43:59.987Z,100603.21
2018-09-01T15:46:27.975Z,100605.08
2018-09-01T15:48:55.807Z,100609.60
2018-09-01T15:51:23.712Z,100606.64
2018-09-01T15:53:51.597Z,100609.22
2018-09-01T15:56:23.442Z,100615.94
2018-09-01T15:58:51.281Z,100617.20
2018-09-01T16:01:19.107Z,100627.31
2018-09-01T16:03:53.698Z,100633.29
2018-09-01T16:06:21.508Z,100624.06
2018-09-01T16:08:50.596Z,100628.44
2018-09-01T16:11:18.280Z,100625.30
2018-09-01T16:13:46.451Z,100617.78
2018-09-01T16:16:14.139Z,100621.98
2018-09-01T16:18:41.985Z,100618.05
2018-09-01T16:21:09.680Z,100625.01
2018-09-01T16:23:37.439Z,100615.76
2018-09-01T16:26:05.103Z,100612.12
2018-09-01T16:28:33.015Z,100611.39
2018-09-01T16:31:00.801Z,100610.73
2018-09-01T16:33:28.581Z,100607.77
2018-09-01T16:35:56.271Z,100610.14
2018-09-01T16:38:24.696Z,100604.44
2018-09-01T16:40:52.625Z,100608.79
2018-09-01T16:43:20.406Z,100605.90
2018-09-01T16:45:48.251Z,100608.34
2018-09-01T16:48:15.990Z,100608.86
2018-09-01T16:50:43.750Z,100612.62
2018-09-01T16:53:11.734Z,100611.70
2018-09-01T16:55:39.434Z,100612.16
2018-09-01T16:58:07.123Z,100613.84
2018-09-01T17:00:34.967Z,100614.19
2018-09-01T17:03:02.602Z,100617.95
2018-09-01T17:05:30.328Z,100619.96
2018-09-01T17:07:58.003Z,100623.56
2018-09-01T17:10:25.767Z,100623.73
2018-09-01T17:12:53.510Z,100619.80
2018-09-01T17:15:21.334Z,100619.72
2018-09-01T17:17:49.462Z,100624.15
2018-09-01T17:20:17.294Z,100621.02
2018-09-01T17:22:44.962Z,100628.34
2018-09-01T17:25:12.699Z,100624.39
2018-09-01T17:27:40.376Z,100634.85
2018-09-01T17:30:08.212Z,100628.38
2018-09-01T17:32:36.098Z,100631.97
2018-09-01T17:35:03.839Z,100626.65
2018-09-01T17:37:31.667Z,100639.25
2018-09-01T17:39:59.467Z,100638.29
2018-09-01T17:42:30.751Z,100636.95
2018-09-01T17:44:58.447Z,100639.40
2018-09-01T17:47:26.182Z,100636.66
2018-09-01T17:49:54.260Z,100635.27
2018-09-01T17:52:22.017Z,100631.38
2018-09-01T17:54:50.024Z,100635.86
2018-09-01T17:57:17.970Z,100644.49
2018-09-01T17:59:45.629Z,100643.23
2018-09-01T18:02:13.868Z,100645.94
2018-09-01T18:04:41.610Z,100648.84
2018-09-01T18:07:09.335Z,100650.47
2018-09-01T18:15:50.302Z,100649.34
2018-09-01T18:18:18.098Z,100650.66
2018-09-01T18:20:45.847Z,100646.34
2018-09-01T18:23:13.548Z,100650.47
2018-09-01T18:25:41.379Z,100650.36
2018-09-01T18:28:09.189Z,100657.34
2018-09-01T18:30:36.875Z,100657.37
2018-09-01T18:33:04.651Z,100653.57
2018-09-01T18:35:32.320Z,100656.14
2018-09-01T18:38:00.061Z,100656.36
2018-09-01T18:40:27.969Z,100656.05
2018-09-01T18:42:55.723Z,100654.53
2018-09-01T18:45:23.503Z,100664.35
2018-09-01T18:47:51.556Z,100664.88
2018-09-01T18:50:19.298Z,100666.09
2018-09-01T18:52:46.996Z,100665.28
2018-09-01T18:55:14.678Z,100664.08
2018-09-01T18:57:42.430Z,100668.98
2018-09-01T19:00:10.199Z,100668.08
2018-09-01T19:02:37.929Z,100671.09
2018-09-01T19:05:05.773Z,100674.47
2018-09-01T19:07:33.454Z,100675.27
2018-09-01T19:10:01.355Z,100670.59
2018-09-01T19:12:29.106Z,100677.09
2018-09-01T19:14:56.884Z,100677.89
2018-09-01T19:17:24.699Z,100685.23
2018-09-01T19:19:56.184Z,100690.61
2018-09-01T19:22:23.937Z,100689.19
2018-09-01T19:24:52.048Z,100687.23
2018-09-01T19:27:19.828Z,100695.39
2018-09-01T19:29:47.636Z,100697.82
2018-09-01T19:32:15.376Z,100694.73
2018-09-01T19:34:43.101Z,100694.81
2018-09-01T19:37:11.155Z,100689.77
2018-09-01T19:39:38.971Z,100695.34
2018-09-01T19:42:06.778Z,100704.27
2018-09-01T19:44:34.481Z,100695.04
2018-09-01T19:47:02.147Z,100698.20
2018-09-01T19:49:29.857Z,100696.47
2018-09-01T19:51:57.536Z,100690.05
2018-09-01T19:54:25.242Z,100690.93
2018-09-01T19:56:53.056Z,100699.08
2018-09-01T19:59:20.754Z,100692.15
2018-09-01T20:01:55.335Z,100695.48
2018-09-01T20:04:23.124Z,100694.36
2018-09-01T20:06:51.248Z,100695.58
2018-09-01T20:09:19.202Z,100699.55
2018-09-01T20:11:46.942Z,100705.66
2018-09-01T20:14:14.791Z,100699.72
2018-09-01T20:16:42.592Z,100701.69
2018-09-01T20:19:10.372Z,100698.53
2018-09-01T20:22:04.810Z,100697.52
2018-09-01T20:24:35.830Z,100694.25
2018-09-01T20:27:03.585Z,100698.39
2018-09-01T20:29:31.423Z,100701.37
2018-09-01T20:31:59.283Z,100696.59
2018-09-01T20:34:27.066Z,100690.79
2018-09-01T20:36:54.844Z,100686.00
2018-09-01T20:39:22.556Z,100682.13
2018-09-01T20:41:50.238Z,100689.77
2018-09-01T20:44:18.015Z,100680.77
2018-09-01T20:46:45.703Z,100684.54
2018-09-01T20:49:13.410Z,100687.59
2018-09-01T20:51:41.246Z,100684.44
2018-09-01T20:54:09.011Z,100680.53
2018-09-01T20:56:37.932Z,100683.07
2018-09-01T20:59:05.722Z,100673.50
2018-09-01T21:01:33.729Z,100677.16
2018-09-01T21:04:01.935Z,100682.13
2018-09-01T21:06:29.643Z,100681.30
2018-09-01T21:08:57.728Z,100677.84
2018-09-01T21:11:25.399Z,100675.80
2018-09-01T21:13:53.733Z,100674.13
2018-09-01T21:16:21.838Z,100672.40
2018-09-01T21:18:49.531Z,100670.52
2018-09-01T21:21:23.907Z,100679.84
2018-09-01T21:23:51.705Z,100678.30
2018-09-01T21:26:19.534Z,100673.69
2018-09-01T21:28:47.199Z,100672.77
2018-09-01T21:31:15.906Z,100674.80
2018-09-01T21:33:43.714Z,100674.20
2018-09-01T21:36:11.669Z,100676.66
2018-09-01T21:38:39.382Z,100680.87
2018-09-01T21:41:08.737Z,100678.31
2018-09-01T21:43:36.430Z,100670.08
2018-09-01T21:46:04.413Z,100677.64
2018-09-01T21:48:32.123Z,100684.55
2018-09-01T21:50:59.827Z,100678.08
2018-09-01T21:53:28.103Z,100678.45
2018-09-01T21:55:55.967Z,100674.66
2018-09-01T21:58:23.717Z,100673.27
2018-09-01T22:00:52.399Z,100676.65
2018-09-01T22:03:23.711Z,100675.13
2018-09-01T22:05:51.438Z,100677.66
2018-09-01T22:08:19.407Z,100674.56
2018-09-01T22:10:47.126Z,100674.63
2018-09-01T22:13:16.207Z,100671.84
2018-09-01T22:15:45.242Z,100670.90
2018-09-01T22:18:13.190Z,100670.31
2018-09-01T22:20:41.622Z,100677.72
2018-09-01T22:23:09.351Z,100664.55
2018-09-01T22:25:37.107Z,100661.41
2018-09-01T22:28:05.079Z,100664.93
2018-09-01T22:30:33.522Z,100660.81
2018-09-01T22:33:01.216Z,100665.97
2018-09-01T22:35:29.043Z,100663.59
2018-09-01T22:37:56.755Z,100664.59
2018-09-01T22:40:24.661Z,100665.31
2018-09-01T22:42:52.431Z,100661.45
2018-09-01T22:45:20.167Z,100658.69
2018-09-01T22:47:48.050Z,100665.28
2018-09-01T22:50:15.751Z,100664.50
2018-09-01T22:52:43.399Z,100661.39
2018-09-01T22:55:11.922Z,100666.41
2018-09-01T22:57:39.769Z,100661.27
2018-09-01T23:00:07.488Z,100661.63
2018-09-01T23:02:35.202Z,100656.60
2018-09-01T23:05:03.731Z,100661.25
2018-09-01T23:07:33.647Z,100664.28
2018-09-01T23:10:02.273Z,100657.39
2018-09-01T23:12:30.683Z,100663.46
2018-09-01T23:14:58.585Z,100664.62
2018-09-01T23:17:26.314Z,100661.84
2018-09-01T23:19:54.096Z,100664.64
2018-09-01T23:28:24.403Z,100648.42
2018-09-01T23:30:52.859Z,100648.11
2018-09-01T23:33:20.754Z,100646.49
2018-09-01T23:35:51.748Z,100640.41
2018-09-01T23:38:19.487Z,100646.70
2018-09-01T23:40:47.180Z,100647.06
2018-09-01T23:43:14.846Z,100647.06
2018-09-01T23:45:43.413Z,100644.94
2018-09-01T23:48:12.123Z,100642.81
2018-09-01T23:50:39.782Z,100638.55
2018-09-01T23:53:07.456Z,100638.80
2018-09-01T23:55:35.139Z,100635.43
2018-09-01T23:58:02.851Z,100636.59
